Time;durP1;ratioP1;P1;durP2;ratioP2;P2;SDS_P1;SDS_P2;PMS_P1;PMS_P2;Temp;Humidity;BMP_temperature;BMP_pressure;BME280_temperature;BME280_humidity;BME280_pressure;Samples;Min_cycle;Max_cycle;Signal;HPM_P1;HPM_P2
2022/11/28 00:01:32;;;;;;;23.17;15.25;;;;;;;6.31;100.00;100889.72;5011849;28;20738;-56
2022/11/28 00:03:58;;;;;;;25.25;15.80;;;;;;;6.28;100.00;100885.63;5012380;28;20045;-56
2022/11/28 00:06:24;;;;;;;22.30;15.55;;;;;;;6.28;100.00;100879.31;5011627;28;20034;-57
2022/11/28 00:08:50;;;;;;;21.00;14.80;;;;;;;6.28;100.00;100882.88;5011213;28;20026;-56
2022/11/28 00:11:15;;;;;;;22.30;15.38;;;;;;;6.29;100.00;100880.94;5011662;28;20497;-57
2022/11/28 00:13:41;;;;;;;21.60;15.30;;;;;;;6.27;100.00;100870.22;5011991;28;20040;-55
2022/11/28 00:16:08;;;;;;;24.70;15.52;;;;;;;6.30;100.00;100883.44;5011322;28;20442;-55
2022/11/28 00:18:33;;;;;;;22.35;15.20;;;;;;;6.30;100.00;100875.19;4992488;28;20041;-56
2022/11/28 00:21:04;;;;;;;22.27;14.93;;;;;;;6.33;100.00;100871.06;5011296;28;20036;-56
2022/11/28 00:23:29;;;;;;;21.77;15.20;;;;;;;6.33;100.00;100873.81;5011349;28;20345;-57
2022/11/28 00:25:59;;;;;;;23.25;15.88;;;;;;;6.36;100.00;100874.06;5010623;28;20033;-56
2022/11/28 00:28:25;;;;;;;20.48;14.48;;;;;;;6.40;100.00;100871.59;5010862;28;20072;-55
2022/11/28 00:30:50;;;;;;;21.08;14.95;;;;;;;6.41;100.00;100862.25;5011111;28;20461;-57
2022/11/28 00:33:15;;;;;;;21.67;14.63;;;;;;;6.44;100.00;100863.59;5010959;28;20680;-55
2022/11/28 00:35:41;;;;;;;21.38;14.70;;;;;;;6.45;100.00;100868.84;5010987;28;20033;-58
2022/11/28 00:38:06;;;;;;;20.92;14.40;;;;;;;6.46;100.00;100862.25;5007361;28;20040;-58
2022/11/28 00:40:31;;;;;;;21.73;14.20;;;;;;;6.48;100.00;100864.72;5010590;28;20030;-57
2022/11/28 00:42:56;;;;;;;22.58;15.38;;;;;;;6.45;100.00;100854.25;5010923;28;20029;-58
2022/11/28 00:45:22;;;;;;;22.02;14.63;;;;;;;6.49;100.00;100856.19;5010874;28;20040;-57
2022/11/28 00:47:48;;;;;;;20.17;13.85;;;;;;;6.49;100.00;100861.66;5010753;28;20038;-57
2022/11/28 00:50:13;;;;;;;20.85;14.65;;;;;;;6.51;100.00;100861.41;5010769;28;20030;-58
2022/11/28 00:52:38;;;;;;;19.60;13.40;;;;;;;6.51;100.00;100851.22;5009995;28;20458;-57
2022/11/28 00:55:04;;;;;;;22.15;14.77;;;;;;;6.52;100.00;100849.28;5010480;28;20478;-56
2022/11/28 00:57:29;;;;;;;21.58;13.98;;;;;;;6.53;100.00;100845.44;5010597;28;20034;-58
2022/11/28 00:59:54;;;;;;;20.98;14.43;;;;;;;6.54;100.00;100849.84;5010662;28;20021;-57
2022/11/28 01:02:20;;;;;;;20.38;14.10;;;;;;;6.53;100.00;100839.94;4992818;28;20132;-58
2022/11/28 01:04:45;;;;;;;21.08;14.00;;;;;;;6.54;100.00;100834.19;5010836;28;20033;-57
2022/11/28 01:07:10;;;;;;;19.63;13.40;;;;;;;6.58;100.00;100831.69;5010467;28;20096;-57
2022/11/28 01:09:36;;;;;;;21.13;14.10;;;;;;;6.56;100.00;100825.66;5010706;28;20034;-56
2022/11/28 01:12:01;;;;;;;21.20;14.52;;;;;;;6.61;100.00;100825.66;5010635;28;20030;-58
2022/11/28 01:14:26;;;;;;;20.17;14.30;;;;;;;6.62;100.00;100826.47;5010817;28;20103;-57
2022/11/28 01:16:52;;;;;;;19.50;12.82;;;;;;;6.66;100.00;100838.56;5010837;28;20028;-57
2022/11/28 01:19:18;;;;;;;21.20;14.93;;;;;;;6.69;100.00;100841.56;5010490;28;20156;-58
2022/11/28 01:21:43;;;;;;;21.35;13.60;;;;;;;6.70;100.00;100836.88;5010491;28;20397;-57
2022/11/28 01:24:09;;;;;;;20.23;14.27;;;;;;;6.69;100.00;100830.56;4992972;28;20072;-58
2022/11/28 01:26:37;;;;;;;18.67;13.57;;;;;;;6.71;100.00;100841.28;5010357;28;20026;-56
2022/11/28 01:29:02;;;;;;;21.08;13.85;;;;;;;6.71;100.00;100833.84;5010358;28;20034;-54
2022/11/28 01:31:28;;;;;;;20.65;14.43;;;;;;;6.69;100.00;100830.56;5009682;28;20068;-55
2022/11/28 01:33:54;;;;;;;19.75;14.10;;;;;;;6.68;100.00;100834.41;5010188;28;20032;-55
2022/11/28 01:36:20;;;;;;;20.70;13.50;;;;;;;6.68;100.00;100833.59;5009951;28;20021;-54
2022/11/28 01:38:46;;;;;;;21.00;14.27;;;;;;;6.67;100.00;100841.03;5012751;28;20033;-55
2022/11/28 01:41:13;;;;;;;21.60;13.75;;;;;;;6.66;100.00;100841.31;5007378;28;20560;-56
2022/11/28 01:44:01;;;;;;;21.05;14.85;;;;;;;6.66;100.00;100833.88;5014509;28;20538;-55
2022/11/28 01:46:28;;;;;;;21.58;14.18;;;;;;;6.65;100.00;100834.16;5014433;28;20029;-54
2022/11/28 01:48:58;;;;;;;22.63;13.93;;;;;;;6.59;100.00;100829.75;5014373;28;20041;-57
2022/11/28 01:51:23;;;;;;;21.55;14.23;;;;;;;6.63;100.00;100839.13;5013479;28;20026;-57
2022/11/28 01:53:49;;;;;;;20.60;14.32;;;;;;;6.61;100.00;100841.31;5014077;28;20025;-57
2022/11/28 01:56:19;;;;;;;20.52;13.65;;;;;;;6.58;100.00;100837.19;4996614;28;20026;-57
2022/11/28 01:58:50;;;;;;;20.73;14.25;;;;;;;6.56;100.00;100834.72;5014083;28;20022;-58
2022/11/28 02:01:17;;;;;;;20.55;14.48;;;;;;;6.55;100.00;100837.75;5013921;28;20536;-55
2022/11/28 02:03:45;;;;;;;20.55;14.57;;;;;;;6.51;100.00;100833.94;5013606;28;20044;-57
2022/11/28 02:06:14;;;;;;;20.30;15.10;;;;;;;6.45;100.00;100829.53;5013959;28;20030;-56
2022/11/28 02:08:40;;;;;;;20.88;14.30;;;;;;;6.48;100.00;100827.03;4995833;28;20140;-57
2022/11/28 02:11:29;;;;;;;22.70;16.08;;;;;;;6.46;100.00;100829.28;4996027;28;20022;-55
2022/11/28 02:14:13;;;;;;;21.58;14.63;;;;;;;6.45;100.00;100824.88;5014012;28;20191;-57
2022/11/28 02:19:56;;;;;;;22.00;15.10;;;;;;;6.42;100.00;100819.94;5032574;28;20047;-57
2022/11/28 02:22:43;;;;;;;;;;;;;;;6.45;100.00;100819.38;5034478;28;20065;-57
2022/11/28 02:25:25;;;;;;;20.77;13.77;;;;;;;6.42;100.00;100819.13;5033684;28;19923;-59
2022/11/28 02:28:02;;;;;;;20.52;14.88;;;;;;;6.43;100.00;100813.34;5033555;28;20033;-58
2022/11/28 02:30:43;;;;;;;22.67;14.13;;;;;;;6.42;100.00;100817.19;5033925;28;20377;-58
2022/11/28 02:33:23;;;;;;;22.95;15.60;;;;;;;6.43;100.00;100818.00;5033673;28;20536;-58
2022/11/28 02:35:58;;;;;;;21.58;14.55;;;;;;;6.43;100.00;100813.34;5033806;28;20119;-57
2022/11/28 02:38:50;;;;;;;20.77;14.73;;;;;;;6.42;100.00;100808.13;5033545;28;20446;-58
2022/11/28 02:41:33;;;;;;;20.85;14.32;;;;;;;6.44;100.00;100814.13;5025316;28;20025;-58
2022/11/28 02:44:11;;;;;;;21.55;14.07;;;;;;;6.40;100.00;100814.72;5033868;28;20025;-57
2022/11/28 02:46:54;;;;;;;20.63;13.50;;;;;;;6.45;100.00;100819.38;5033472;28;20511;-58
2022/11/28 02:49:35;;;;;;;20.23;14.00;;;;;;;6.47;100.00;100817.16;5031943;28;20519;-58
2022/11/28 02:52:11;;;;;;;20.70;13.65;;;;;;;6.42;100.00;100803.44;5033893;28;20174;-57
2022/11/28 02:54:39;;;;;;;19.95;13.90;;;;;;;6.45;100.00;100816.63;5033256;28;20481;-57
2022/11/28 02:57:05;;;;;;;18.98;13.20;;;;;;;6.43;100.00;100810.59;5033413;28;20501;-57
2022/11/28 02:59:36;;;;;;;21.08;14.52;;;;;;;6.47;100.00;100806.16;5033125;28;20156;-58
2022/11/28 03:02:02;;;;;;;20.60;13.13;;;;;;;6.46;100.00;100810.03;5033361;28;20075;-57
2022/11/28 03:04:43;;;;;;;19.67;13.45;;;;;;;6.43;100.00;100805.09;5033319;28;20068;-56
2022/11/28 03:07:27;;;;;;;18.92;13.38;;;;;;;6.44;100.00;100803.97;5033136;28;20025;-57
2022/11/28 03:10:17;;;;;;;19.02;13.45;;;;;;;6.42;100.00;100794.38;5033003;28;20481;-57
2022/11/28 03:13:07;;;;;;;19.25;12.95;;;;;;;6.37;100.00;100787.78;5033007;28;20041;-57
2022/11/28 03:15:57;;;;;;;18.75;12.98;;;;;;;6.42;100.00;100803.44;5033071;28;20083;-57
2022/11/28 03:18:31;;;;;;;20.00;13.50;;;;;;;6.31;100.00;100783.41;5032732;28;20049;-57
2022/11/28 03:21:11;;;;;;;19.83;13.40;;;;;;;6.35;100.00;100784.50;5032886;28;20074;-57
2022/11/28 03:23:43;;;;;;;22.98;15.43;;;;;;;6.37;100.00;100796.03;5032980;28;20033;-57
2022/11/28 03:26:35;;;;;;;19.98;13.68;;;;;;;6.37;100.00;100800.72;5032809;28;20414;-57
2022/11/28 03:29:31;;;;;;;19.83;13.32;;;;;;;6.39;100.00;100803.97;5032718;28;20033;-57
2022/11/28 03:32:02;;;;;;;22.70;13.75;;;;;;;6.30;100.00;100787.25;5026291;28;20146;-58
2022/11/28 03:34:39;;;;;;;21.38;13.68;;;;;;;6.35;100.00;100795.47;5032638;28;20418;-58
2022/11/28 03:37:29;;;;;;;20.17;14.27;;;;;;;6.31;100.00;100788.91;5032588;28;20034;-57
2022/11/28 03:39:59;;;;;;;20.13;13.70;;;;;;;6.35;100.00;100794.66;5032444;28;20155;-58
2022/11/28 03:42:29;;;;;;;19.83;14.25;;;;;;;6.29;100.00;100791.09;5024902;28;20029;-58
2022/11/28 03:45:08;;;;;;;20.13;13.57;;;;;;;6.28;100.00;100783.97;5032438;28;20040;-58
2022/11/28 03:47:39;;;;;;;19.95;13.15;;;;;;;6.29;100.00;100787.53;5032261;28;20034;-58
2022/11/28 03:50:10;;;;;;;24.58;13.93;;;;;;;6.33;100.00;100791.38;5032057;28;20404;-58
2022/11/28 03:52:42;;;;;;;20.88;13.18;;;;;;;6.34;100.00;100801.25;5032288;28;20025;-58
2022/11/28 03:55:17;;;;;;;19.50;13.75;;;;;;;6.35;100.00;100791.91;5032119;28;20106;-58
2022/11/28 03:58:06;;;;;;;19.38;13.90;;;;;;;6.34;100.00;100795.78;5032252;28;20361;-58
2022/11/28 04:00:36;;;;;;;19.83;14.02;;;;;;;6.33;100.00;100794.13;5031869;28;20025;-58
2022/11/28 04:03:05;;;;;;;18.67;13.45;;;;;;;6.33;100.00;100796.88;5032120;28;20059;-57
2022/11/28 04:05:51;;;;;;;20.02;14.13;;;;;;;6.30;100.00;100798.25;5031828;28;20064;-58
2022/11/28 04:08:23;;;;;;;19.58;14.00;;;;;;;6.26;100.00;100790.84;5031365;28;20029;-58
2022/11/28 04:11:02;;;;;;;20.65;14.65;;;;;;;6.29;100.00;100793.84;5013907;28;20072;-57
2022/11/28 04:13:59;;;;;;;20.83;14.63;;;;;;;6.33;100.00;100802.34;5032151;28;20060;-58
2022/11/28 04:16:36;;;;;;;19.88;14.30;;;;;;;6.26;100.00;100790.84;5031946;28;20071;-58
2022/11/28 04:19:10;;;;;;;20.73;13.77;;;;;;;6.27;100.00;100790.56;5031724;28;20115;-58
2022/11/28 04:21:40;;;;;;;;;;;;;;;6.31;100.00;100791.66;5032408;28;20060;-56
2022/11/28 04:24:10;;;;;;;20.67;14.40;;;;;;;6.29;100.00;100795.75;5031741;28;19960;-56
2022/11/28 04:26:41;;;;;;;20.58;14.40;;;;;;;6.24;100.00;100788.34;5031698;28;20052;-57
2022/11/28 04:29:10;;;;;;;20.15;14.40;;;;;;;6.28;100.00;100796.91;5031622;28;20477;-56
2022/11/28 04:31:38;;;;;;;21.17;13.73;;;;;;;6.26;100.00;100788.91;5031667;28;20040;-57
2022/11/28 04:34:07;;;;;;;19.20;13.20;;;;;;;6.26;100.00;100799.09;5031627;28;20033;-57
2022/11/28 04:36:36;;;;;;;22.80;16.30;;;;;;;6.26;100.00;100799.91;5031830;28;20053;-56
2022/11/28 04:39:05;;;;;;;22.50;15.30;;;;;;;6.27;100.00;100800.75;5028593;28;20485;-57
2022/11/28 04:41:40;;;;;;;19.42;13.73;;;;;;;6.27;100.00;100803.47;5031421;28;20104;-58
2022/11/28 04:44:30;;;;;;;21.08;14.77;;;;;;;6.27;100.00;100798.00;5031474;28;20029;-58
2022/11/28 04:46:56;;;;;;;22.00;14.10;;;;;;;6.21;100.00;100795.25;5031518;28;20091;-61
2022/11/28 04:49:24;;;;;;;22.23;15.50;;;;;;;6.26;100.00;100799.09;5031655;28;20037;-57
2022/11/28 04:52:18;;;;;;;22.25;15.18;;;;;;;6.27;100.00;100796.06;5031376;28;20033;-58
2022/11/28 04:55:00;;;;;;;20.15;14.35;;;;;;;6.22;100.00;100791.41;5031249;28;20087;-58
2022/11/28 04:57:32;;;;;;;20.50;14.90;;;;;;;6.24;100.00;100793.84;5031091;28;20026;-58
2022/11/28 05:00:00;;;;;;;21.08;14.40;;;;;;;6.25;100.00;100795.50;5031417;28;20108;-58
2022/11/28 05:02:27;;;;;;;24.05;16.52;;;;;;;6.26;100.00;100796.34;5031273;28;20432;-58
2022/11/28 05:04:54;;;;;;;20.15;14.75;;;;;;;6.26;100.00;100796.34;5031167;28;20468;-57
2022/11/28 05:07:20;;;;;;;20.20;14.40;;;;;;;6.26;100.00;100799.09;5031487;28;20103;-57
2022/11/28 05:09:46;;;;;;;20.15;14.25;;;;;;;6.26;100.00;100797.16;5031428;28;20035;-58
2022/11/28 05:12:12;;;;;;;20.65;14.90;;;;;;;6.27;100.00;100808.97;5030856;28;20124;-58
2022/11/28 05:14:37;;;;;;;21.02;14.25;;;;;;;6.27;100.00;100803.47;5031263;28;20057;-58
2022/11/28 05:17:02;;;;;;;20.25;14.65;;;;;;;6.28;100.00;100810.63;5031333;28;20392;-58
2022/11/28 05:19:28;;;;;;;20.08;14.35;;;;;;;6.27;100.00;100809.78;5031075;28;20493;-58
2022/11/28 05:21:53;;;;;;;20.58;14.95;;;;;;;6.27;100.00;100812.53;5031184;28;20030;-58
2022/11/28 05:24:18;;;;;;;20.13;15.07;;;;;;;6.27;100.00;100818.03;5031316;28;20029;-58
2022/11/28 05:26:43;;;;;;;21.95;15.25;;;;;;;6.28;100.00;100810.63;5031145;28;20385;-59
2022/11/28 05:29:09;;;;;;;20.73;14.20;;;;;;;6.28;100.00;100811.44;5031113;28;20397;-58
2022/11/28 05:31:34;;;;;;;20.55;14.93;;;;;;;6.27;100.00;100809.78;5031325;28;20048;-58
2022/11/28 05:33:59;;;;;;;20.23;14.90;;;;;;;6.29;100.00;100815.84;5031292;28;20065;-58
2022/11/28 05:36:25;;;;;;;20.38;15.38;;;;;;;6.30;100.00;100814.75;5030955;28;20061;-57
2022/11/28 05:38:50;;;;;;;20.35;15.00;;;;;;;6.30;100.00;100813.91;5030719;28;20120;-57
2022/11/28 05:41:19;;;;;;;19.92;14.75;;;;;;;6.30;100.00;100813.91;5026692;28;20079;-58
2022/11/28 05:43:45;;;;;;;21.42;14.60;;;;;;;6.29;100.00;100818.59;5030790;28;20381;-58
2022/11/28 05:46:10;;;;;;;20.77;14.23;;;;;;;6.31;100.00;100824.63;5030614;28;20045;-58
2022/11/28 05:48:35;;;;;;;20.42;14.38;;;;;;;6.31;100.00;100821.03;5030819;28;20052;-57
2022/11/28 05:51:03;;;;;;;21.10;14.70;;;;;;;6.32;100.00;100814.44;5030055;28;20040;-59
2022/11/28 05:53:29;;;;;;;19.85;14.57;;;;;;;6.32;100.00;100818.03;5029917;28;20104;-59
2022/11/28 05:55:54;;;;;;;19.90;14.80;;;;;;;6.33;100.00;100818.84;5030805;28;20168;-58
2022/11/28 05:58:19;;;;;;;20.30;14.35;;;;;;;6.33;100.00;100822.41;5030929;28;20427;-58
2022/11/28 06:00:44;;;;;;;21.13;14.30;;;;;;;6.34;100.00;100815.81;5030645;28;20030;-58
2022/11/28 06:03:10;;;;;;;20.20;13.73;;;;;;;6.33;100.00;100816.09;5030869;28;20021;-59
2022/11/28 06:05:39;;;;;;;19.88;14.32;;;;;;;6.30;100.00;100802.91;5031093;28;20029;-58
2022/11/28 06:08:04;;;;;;;20.00;14.05;;;;;;;6.35;100.00;100813.91;5030948;28;20104;-58
2022/11/28 06:10:29;;;;;;;21.33;15.23;;;;;;;6.36;100.00;100815.56;5030655;28;20113;-57
2022/11/28 06:12:55;;;;;;;19.90;14.50;;;;;;;6.36;100.00;100819.13;5030093;28;20057;-58
2022/11/28 06:15:20;;;;;;;19.25;14.15;;;;;;;6.35;100.00;100813.91;5030089;28;20079;-58
2022/11/28 06:17:45;;;;;;;21.63;15.52;;;;;;;6.37;100.00;100819.94;5029648;28;20041;-58
2022/11/28 06:20:11;;;;;;;21.52;15.02;;;;;;;6.35;100.00;100809.22;5030057;28;20032;-58
2022/11/28 06:22:36;;;;;;;20.38;14.57;;;;;;;6.35;100.00;100830.38;5029775;28;20481;-60
2022/11/28 06:25:01;;;;;;;19.67;14.10;;;;;;;6.34;100.00;100817.75;5030886;28;20557;-59
2022/11/28 06:27:27;;;;;;;20.30;14.30;;;;;;;6.33;100.00;100819.66;5033055;28;20029;-59
2022/11/28 06:29:53;;;;;;;20.38;14.65;;;;;;;6.31;100.00;100816.38;5032855;28;20104;-58
2022/11/28 06:32:18;;;;;;;21.20;14.85;;;;;;;6.33;100.00;100816.09;5033687;28;20025;-59
2022/11/28 06:34:43;;;;;;;20.63;14.65;;;;;;;6.33;100.00;100818.84;5033527;28;20040;-58
2022/11/28 06:37:08;;;;;;;21.70;14.95;;;;;;;6.33;100.00;100827.91;5033791;28;20385;-60
2022/11/28 06:39:34;;;;;;;21.45;15.23;;;;;;;6.34;100.00;100834.22;5034276;28;20085;-58
2022/11/28 06:41:59;;;;;;;20.50;14.57;;;;;;;6.35;100.00;100849.63;5026849;28;20192;-59
2022/11/28 06:44:24;;;;;;;21.20;14.45;;;;;;;6.34;100.00;100832.28;5032942;28;20137;-59
2022/11/28 06:46:50;;;;;;;20.70;15.25;;;;;;;6.33;100.00;100832.59;5031430;28;20254;-59
2022/11/28 06:49:15;;;;;;;21.02;14.80;;;;;;;6.35;100.00;100846.88;5031823;28;20034;-60
2022/11/28 06:51:41;;;;;;;20.85;14.82;;;;;;;6.34;100.00;100839.72;5031896;28;20108;-60
2022/11/28 06:54:07;;;;;;;21.40;15.10;;;;;;;6.36;100.00;100843.03;5031867;28;20163;-61
2022/11/28 06:56:33;;;;;;;21.45;15.82;;;;;;;6.36;100.00;100835.59;5031810;28;20441;-60
2022/11/28 06:58:59;;;;;;;21.88;15.43;;;;;;;6.35;100.00;100842.19;5031398;28;21089;-59
2022/11/28 07:01:27;;;;;;;20.75;15.10;;;;;;;6.38;100.00;100835.31;5030233;28;20025;-61
2022/11/28 07:03:53;;;;;;;20.98;15.27;;;;;;;6.38;100.00;100847.13;5031612;28;20022;-61
2022/11/28 07:06:20;;;;;;;21.58;15.82;;;;;;;6.36;100.00;100849.34;5032621;28;20021;-59
2022/11/28 07:08:47;;;;;;;21.83;15.90;;;;;;;6.35;100.00;100839.44;5033276;28;20119;-60
2022/11/28 07:11:25;;;;;;;20.67;15.75;;;;;;;6.35;100.00;100825.69;5032022;28;20143;-59
2022/11/28 07:13:52;;;;;;;23.13;16.45;;;;;;;6.38;100.00;100827.91;5032739;28;20146;-58
2022/11/28 07:16:21;;;;;;;24.00;18.00;;;;;;;6.41;100.00;100848.50;5032602;28;20100;-58
2022/11/28 07:18:46;;;;;;;22.58;16.65;;;;;;;6.42;100.00;100852.91;5032395;28;20061;-59
2022/11/28 07:21:13;;;;;;;21.40;15.43;;;;;;;6.42;100.00;100841.09;5032158;28;20479;-57
2022/11/28 07:23:39;;;;;;;21.30;15.80;;;;;;;6.43;100.00;100845.47;5032797;28;20030;-58
2022/11/28 07:26:05;;;;;;;22.23;16.27;;;;;;;6.42;100.00;100836.41;5032061;28;20491;-58
2022/11/28 07:28:31;;;;;;;22.02;16.25;;;;;;;6.42;100.00;100852.91;5032545;28;20114;-57
2022/11/28 07:31:11;;;;;;;23.20;16.48;;;;;;;6.40;100.00;100847.69;5032860;28;20144;-57
2022/11/28 07:33:38;;;;;;;21.17;16.17;;;;;;;6.39;100.00;100847.94;5032495;28;20041;-60
2022/11/28 07:36:11;;;;;;;22.50;16.88;;;;;;;6.38;100.00;100852.63;5032222;28;20045;-58
2022/11/28 07:38:36;;;;;;;23.02;16.98;;;;;;;6.44;100.00;100856.19;5020833;28;20621;-58
2022/11/28 07:41:06;;;;;;;23.23;16.73;;;;;;;6.45;100.00;100859.75;4995428;28;20156;-58
2022/11/28 07:43:32;;;;;;;23.55;16.83;;;;;;;6.45;100.00;100857.00;5027014;28;20563;-58
2022/11/28 07:45:57;;;;;;;22.73;17.23;;;;;;;6.46;100.00;100861.41;5020221;28;20082;-57
2022/11/28 07:48:23;;;;;;;23.95;17.42;;;;;;;6.45;100.00;100862.50;5019373;28;20030;-58
2022/11/28 07:50:48;;;;;;;22.98;17.25;;;;;;;6.46;100.00;100872.41;5009169;28;20030;-59
2022/11/28 07:53:13;;;;;;;23.40;17.90;;;;;;;6.45;100.00;100871.59;5008802;28;20111;-58
2022/11/28 07:55:39;;;;;;;24.50;17.52;;;;;;;6.38;100.00;100868.28;5014847;28;20041;-58
2022/11/28 07:58:04;;;;;;;25.33;18.70;;;;;;;6.45;100.00;100881.75;5022230;28;20030;-58
2022/11/28 08:00:31;;;;;;;24.90;18.70;;;;;;;6.44;100.00;100872.69;5019768;28;20074;-58
2022/11/28 08:02:56;;;;;;;25.30;17.88;;;;;;;6.45;100.00;100881.75;5029235;28;20021;-58
2022/11/28 08:05:21;;;;;;;24.35;17.85;;;;;;;6.47;100.00;100885.03;5030029;28;20095;-58
2022/11/28 08:07:48;;;;;;;27.63;20.38;;;;;;;6.47;100.00;100893.28;5024261;28;20034;-59
2022/11/28 08:10:13;;;;;;;29.65;21.58;;;;;;;6.48;100.00;100883.94;5020896;28;20030;-58
2022/11/28 08:12:38;;;;;;;25.33;18.95;;;;;;;6.49;100.00;100882.84;5019388;28;20045;-59
2022/11/28 08:15:04;;;;;;;25.00;19.55;;;;;;;6.49;100.00;100882.84;5014358;28;20045;-58
2022/11/28 08:17:29;;;;;;;24.25;18.77;;;;;;;6.47;100.00;100877.59;5013041;28;20041;-58
2022/11/28 08:19:55;;;;;;;25.55;19.45;;;;;;;6.49;100.00;100888.34;5026732;28;20501;-59
2022/11/28 08:22:20;;;;;;;25.15;18.73;;;;;;;6.48;100.00;100890.25;5025908;28;20264;-58
2022/11/28 08:24:45;;;;;;;24.52;18.58;;;;;;;6.49;100.00;100889.16;5020792;28;20137;-58
2022/11/28 08:27:10;;;;;;;25.13;18.35;;;;;;;6.52;100.00;100890.53;5025529;28;20470;-59
2022/11/28 08:29:36;;;;;;;25.48;18.25;;;;;;;6.52;100.00;100885.88;5026781;28;20033;-58
2022/11/28 08:32:01;;;;;;;24.45;18.17;;;;;;;6.54;100.00;100885.56;5013044;28;20379;-58
2022/11/28 08:34:26;;;;;;;24.13;18.55;;;;;;;6.55;100.00;100890.81;5009953;28;20030;-58
2022/11/28 08:36:51;;;;;;;24.17;18.45;;;;;;;6.59;100.00;100890.25;5009973;28;20168;-58
2022/11/28 08:39:17;;;;;;;25.00;18.65;;;;;;;6.60;100.00;100898.22;5009796;28;20119;-58
2022/11/28 08:41:43;;;;;;;24.70;18.73;;;;;;;6.63;100.00;100900.41;5009910;28;20515;-59
2022/11/28 08:44:09;;;;;;;24.38;18.65;;;;;;;6.65;100.00;100898.19;5009903;28;20397;-58
2022/11/28 08:46:35;;;;;;;29.08;20.83;;;;;;;6.69;100.00;100902.06;4991697;28;20142;-58
2022/11/28 08:49:00;;;;;;;25.20;18.70;;;;;;;6.71;100.00;100899.81;5008817;28;20029;-58
2022/11/28 08:51:26;;;;;;;25.58;19.10;;;;;;;6.72;100.00;100909.72;5009614;28;20443;-58
2022/11/28 08:53:52;;;;;;;25.15;18.73;;;;;;;6.75;100.00;100902.88;4991819;28;20051;-58
2022/11/28 08:56:17;;;;;;;25.08;18.40;;;;;;;6.77;100.00;100897.88;5009483;28;20088;-58
2022/11/28 08:58:43;;;;;;;25.23;18.85;;;;;;;6.80;100.00;100899.28;5009292;28;20048;-58
2022/11/28 09:01:22;;;;;;;25.80;18.70;;;;;;;6.81;100.00;100896.25;5009514;28;20025;-58
2022/11/28 09:03:48;;;;;;;29.50;21.40;;;;;;;6.83;100.00;100896.78;5009283;28;20513;-59
2022/11/28 09:06:14;;;;;;;28.63;21.23;;;;;;;6.84;100.00;100897.59;5011308;28;20054;-58
2022/11/28 09:08:41;;;;;;;26.38;19.65;;;;;;;6.88;100.00;100901.44;5010861;28;20149;-58
2022/11/28 09:11:12;;;;;;;23.83;18.60;;;;;;;6.89;100.00;100897.59;5011196;28;20061;-57
2022/11/28 09:13:38;;;;;;;26.90;18.98;;;;;;;6.89;100.00;100899.50;4993523;28;20029;-58
2022/11/28 09:16:03;;;;;;;25.50;19.25;;;;;;;6.93;100.00;100898.66;5011267;28;20139;-58
2022/11/28 09:18:29;;;;;;;28.52;20.95;;;;;;;6.95;100.00;100901.97;5010850;28;20077;-58
2022/11/28 09:20:59;;;;;;;29.98;21.63;;;;;;;6.97;100.00;100910.78;5010159;28;20038;-58
2022/11/28 09:23:24;;;;;;;25.27;19.38;;;;;;;6.99;100.00;100910.47;5009092;28;20552;-57
2022/11/28 09:25:50;;;;;;;25.13;18.38;;;;;;;7.00;100.00;100909.38;5008972;28;20042;-59
2022/11/28 09:28:15;;;;;;;26.88;19.90;;;;;;;7.01;100.00;100908.28;5009067;28;20037;-58
2022/11/28 09:30:40;;;;;;;25.90;19.63;;;;;;;6.99;100.00;100907.72;5008927;28;20040;-58
2022/11/28 09:33:05;;;;;;;26.90;19.27;;;;;;;7.02;100.00;100918.19;5008919;28;20026;-58
2022/11/28 09:35:31;;;;;;;25.98;19.75;;;;;;;7.05;100.00;100908.53;5009508;28;20030;-58
2022/11/28 09:37:57;;;;;;;25.60;19.80;;;;;;;7.03;100.00;100917.91;5011014;28;20022;-58
2022/11/28 09:40:43;;;;;;;26.60;19.55;;;;;;;7.07;100.00;100909.91;5011023;28;20036;-57
2022/11/28 09:43:22;;;;;;;25.80;19.42;;;;;;;7.13;100.00;100910.72;5010924;28;20022;-58
2022/11/28 09:45:52;;;;;;;26.88;20.42;;;;;;;7.04;100.00;100902.19;5010792;28;20128;-58
2022/11/28 09:48:27;;;;;;;27.85;21.95;;;;;;;7.15;100.00;100916.75;5010868;28;20545;-57
2022/11/28 09:50:56;;;;;;;26.20;19.65;;;;;;;7.16;100.00;100921.97;5010933;28;20034;-58
2022/11/28 09:53:29;;;;;;;27.85;20.25;;;;;;;7.18;100.00;100919.75;5010930;28;20548;-59
2022/11/28 09:55:59;;;;;;;26.65;19.27;;;;;;;7.15;100.00;100911.25;5011087;28;20049;-58
2022/11/28 09:59:02;;;;;;;28.23;20.98;;;;;;;7.18;100.00;100919.75;5011082;28;20034;-57
2022/11/28 10:01:49;;;;;;;27.83;20.10;;;;;;;7.24;100.00;100920.56;5014458;28;20446;-59
2022/11/28 10:04:23;;;;;;;27.58;19.15;;;;;;;7.26;100.00;100923.03;5014929;28;20189;-59
2022/11/28 10:07:05;;;;;;;27.10;19.42;;;;;;;7.29;100.00;100917.78;5014768;28;20033;-58
2022/11/28 10:09:50;;;;;;;26.60;19.52;;;;;;;7.31;100.00;100925.78;5014963;28;20033;-58
2022/11/28 10:12:31;;;;;;;26.52;19.30;;;;;;;7.35;100.00;100913.09;5014751;28;20041;-58
2022/11/28 10:15:27;;;;;;;26.58;19.15;;;;;;;7.38;100.00;100914.44;5014608;28;20026;-59
2022/11/28 10:17:58;;;;;;;26.60;18.70;;;;;;;7.38;100.00;100915.28;5014695;28;20049;-58
2022/11/28 10:20:31;;;;;;;26.13;18.67;;;;;;;7.41;100.00;100920.22;5014411;28;20040;-58
2022/11/28 10:23:00;;;;;;;25.83;18.63;;;;;;;7.39;100.00;100910.59;5014520;28;20202;-59
2022/11/28 10:25:41;;;;;;;25.95;18.60;;;;;;;7.45;100.00;100913.03;5014169;28;20497;-58
2022/11/28 10:28:14;;;;;;;24.35;18.17;;;;;;;7.47;100.00;100910.81;5014120;28;20045;-58
2022/11/28 10:30:44;;;;;;;24.90;18.73;;;;;;;7.51;100.00;100919.34;5014260;28;20065;-58
2022/11/28 10:33:48;;;;;;;25.33;18.15;;;;;;;7.55;100.00;100916.84;5014263;28;20292;-58
2022/11/28 10:36:25;;;;;;;24.63;17.50;;;;;;;7.57;100.00;100915.44;5013709;28;20042;-58
2022/11/28 10:38:50;;;;;;;24.00;17.85;;;;;;;7.57;100.00;100914.63;5014208;28;20540;-58
2022/11/28 10:41:35;;;;;;;25.45;17.60;;;;;;;7.57;100.00;100918.19;5014116;28;20100;-58
2022/11/28 10:44:35;;;;;;;24.83;17.70;;;;;;;7.60;100.00;100917.63;5014126;28;20040;-59
2022/11/28 10:47:11;;;;;;;24.63;17.88;;;;;;;7.59;100.00;100913.22;5003339;28;20125;-56
2022/11/28 10:49:55;;;;;;;26.08;17.77;;;;;;;7.64;100.00;100920.63;5013348;28;20108;-59
2022/11/28 10:52:43;;;;;;;24.47;17.80;;;;;;;7.65;100.00;100925.03;5013939;28;20038;-59
2022/11/28 10:55:25;;;;;;;25.38;18.33;;;;;;;7.65;100.00;100925.84;5013866;28;20462;-59
2022/11/28 10:58:09;;;;;;;25.05;18.52;;;;;;;7.67;100.00;100927.50;5012131;28;20084;-59
2022/11/28 11:00:35;;;;;;;;;;;;;;;7.72;100.00;100928.28;5012208;28;20026;-58
2022/11/28 11:03:02;;;;;;;25.85;17.92;;;;;;;7.72;100.00;100924.72;5011921;28;19913;-59
2022/11/28 11:05:31;;;;;;;25.67;18.67;;;;;;;7.67;100.00;100920.06;5011498;28;20026;-59
2022/11/28 11:08:02;;;;;;;27.02;19.38;;;;;;;7.70;100.00;100911.22;5011782;28;20026;-58
2022/11/28 11:10:50;;;;;;;26.42;18.80;;;;;;;7.79;100.00;100919.72;5010919;28;20375;-59
2022/11/28 11:13:22;;;;;;;26.17;18.30;;;;;;;7.80;100.00;100921.38;5011490;28;20088;-59
2022/11/28 11:16:00;;;;;;;27.33;19.08;;;;;;;7.80;100.00;100919.44;5011569;28;20202;-58
2022/11/28 11:18:29;;;;;;;26.27;18.92;;;;;;;7.84;100.00;100918.88;5009190;28;20065;-58
2022/11/28 11:21:21;;;;;;;27.02;18.75;;;;;;;7.85;100.00;100921.31;5011655;28;20373;-58
2022/11/28 11:23:48;;;;;;;27.25;18.95;;;;;;;7.85;100.00;100921.31;5011386;28;20034;-59
2022/11/28 11:26:24;;;;;;;26.92;19.75;;;;;;;7.86;100.00;100920.22;5011093;28;20049;-58
2022/11/28 11:28:50;;;;;;;28.35;19.45;;;;;;;7.84;100.00;100916.91;5011256;28;20040;-58